Time;durP1;ratioP1;P1;durP2;ratioP2;P2;SDS_P1;SDS_P2;PMS_P1;PMS_P2;Temp;Humidity;BMP_temperature;BMP_pressure;BME280_temperature;BME280_humidity;BME280_pressure;Samples;Min_cycle;Max_cycle;Signal;HPM_P1;HPM_P2
2021/08/25 00:00:10;;;;;;;43.80;35.17;;;;;;;;;;4992613;28;20055;-67
2021/08/25 00:02:59;;;;;;;49.45;36.33;;;;;;;;;;4979400;28;20054;-67
2021/08/25 00:05:44;;;;;;;32.90;26.88;;;;;;;;;;4978594;28;20051;-67
2021/08/25 00:08:29;;;;;;;26.58;23.60;;;;;;;;;;4994002;28;20061;-66
2021/08/25 00:11:14;;;;;;;57.83;38.03;;;;;;;;;;4996794;28;20492;-66
2021/08/25 00:14:00;;;;;;;58.78;43.30;;;;;;;;;;5012358;28;20046;-66
2021/08/25 00:16:45;;;;;;;58.72;42.03;;;;;;;;;;5013172;28;20054;-66
2021/08/25 00:19:30;;;;;;;62.70;45.95;;;;;;;;;;5013365;28;20054;-67
2021/08/25 00:22:16;;;;;;;61.72;44.05;;;;;;;;;;5011622;28;20054;-66
2021/08/25 00:25:01;;;;;;;59.72;42.72;;;;;;;;;;5012739;28;20054;-66
2021/08/25 00:27:46;;;;;;;59.05;39.38;;;;;;;;;;5013230;28;20125;-67
2021/08/25 00:30:32;;;;;;;56.63;42.13;;;;;;;;;;5011651;28;20405;-66
2021/08/25 00:33:17;;;;;;;58.03;40.42;;;;;;;;;;4996413;28;20054;-67
2021/08/25 00:36:02;;;;;;;60.08;41.25;;;;;;;;;;4992361;28;20090;-67
2021/08/25 00:38:47;;;;;;;64.00;44.60;;;;;;;;;;4992234;28;20062;-67
2021/08/25 00:41:32;;;;;;;66.57;46.75;;;;;;;;;;4992970;28;20051;-66
2021/08/25 00:44:17;;;;;;;64.82;43.53;;;;;;;;;;4997527;28;20050;-66
2021/08/25 00:47:03;;;;;;;71.78;45.83;;;;;;;;;;5012792;28;20401;-66
2021/08/25 00:49:48;;;;;;;67.32;46.60;;;;;;;;;;5012622;28;20046;-66
2021/08/25 00:52:34;;;;;;;60.60;41.83;;;;;;;;;;5010312;28;20059;-67
2021/08/25 00:55:19;;;;;;;73.78;49.25;;;;;;;;;;5011084;28;20054;-66
2021/08/25 00:58:06;;;;;;;74.43;44.08;;;;;;;;;;5012458;28;20393;-67
2021/08/25 01:01:06;;;;;;;91.80;54.13;;;;;;;;;;5011632;28;20053;-67
2021/08/25 01:03:54;;;;;;;86.75;52.72;;;;;;;;;;4986839;28;20512;-66
2021/08/25 01:06:39;;;;;;;79.13;49.60;;;;;;;;;;4992663;28;20129;-66
2021/08/25 01:09:24;;;;;;;83.25;50.97;;;;;;;;;;4991531;28;20133;-66
2021/08/25 01:12:10;;;;;;;94.25;54.17;;;;;;;;;;4992686;28;20526;-67
2021/08/25 01:14:56;;;;;;;79.05;44.78;;;;;;;;;;4978184;28;20129;-66
2021/08/25 01:17:41;;;;;;;70.10;43.40;;;;;;;;;;4992900;28;20082;-66
2021/08/25 01:20:27;;;;;;;70.70;42.35;;;;;;;;;;4991744;28;20055;-67
2021/08/25 01:23:13;;;;;;;59.10;37.33;;;;;;;;;;4992107;28;20058;-67
2021/08/25 01:25:59;;;;;;;55.55;33.50;;;;;;;;;;4991741;28;20046;-66
2021/08/25 01:28:49;;;;;;;58.00;35.20;;;;;;;;;;4991377;28;20406;-67
2021/08/25 01:31:34;;;;;;;80.20;47.88;;;;;;;;;;4991188;28;20059;-66
2021/08/25 01:34:19;;;;;;;69.13;41.33;;;;;;;;;;4992325;28;20493;-67
2021/08/25 01:37:04;;;;;;;86.28;50.70;;;;;;;;;;4991583;28;20050;-67
2021/08/25 01:39:50;;;;;;;82.55;48.33;;;;;;;;;;4992330;28;20062;-67
2021/08/25 01:42:35;;;;;;;68.55;42.92;;;;;;;;;;4992443;28;20050;-67
2021/08/25 01:45:20;;;;;;;97.95;56.45;;;;;;;;;;4993202;28;20086;-66
2021/08/25 01:48:06;;;;;;;94.97;52.67;;;;;;;;;;4992442;28;20054;-66
2021/08/25 01:50:51;;;;;;;139.57;55.25;;;;;;;;;;4992544;28;20050;-67
2021/08/25 01:53:36;;;;;;;103.40;50.88;;;;;;;;;;4991123;28;20050;-66
2021/08/25 01:56:21;;;;;;;82.80;48.50;;;;;;;;;;5005635;28;20397;-66
2021/08/25 01:59:06;;;;;;;107.70;54.67;;;;;;;;;;5010691;28;20054;-67
2021/08/25 02:01:51;;;;;;;79.15;48.17;;;;;;;;;;5010563;28;20058;-67
2021/08/25 02:04:37;;;;;;;123.53;62.42;;;;;;;;;;5011618;28;20057;-66
2021/08/25 02:07:23;;;;;;;124.40;64.60;;;;;;;;;;5011687;28;20050;-66
2021/08/25 02:10:08;;;;;;;114.55;62.30;;;;;;;;;;5011910;28;20529;-66
2021/08/25 02:12:53;;;;;;;139.02;69.72;;;;;;;;;;5011720;28;20053;-66
2021/08/25 02:15:38;;;;;;;97.65;56.95;;;;;;;;;;5010170;28;20046;-66
2021/08/25 02:18:24;;;;;;;98.13;54.35;;;;;;;;;;5010518;28;20062;-66
2021/08/25 02:21:09;;;;;;;90.88;53.30;;;;;;;;;;5010478;28;20512;-66
2021/08/25 02:23:55;;;;;;;97.13;57.83;;;;;;;;;;5044542;23;20436;-70
2021/08/25 02:26:40;;;;;;;107.32;60.72;;;;;;;;;;5031341;28;20054;-69
2021/08/25 02:29:25;;;;;;;90.13;55.55;;;;;;;;;;5033835;28;20124;-69
2021/08/25 02:32:10;;;;;;;98.55;59.50;;;;;;;;;;5033595;28;20054;-69
2021/08/25 02:34:55;;;;;;;117.35;64.80;;;;;;;;;;5033457;28;20057;-69
2021/08/25 02:37:40;;;;;;;133.73;70.03;;;;;;;;;;5019199;28;20054;-70
2021/08/25 02:40:26;;;;;;;107.55;61.15;;;;;;;;;;5015088;28;20496;-70
2021/08/25 02:43:11;;;;;;;101.93;58.92;;;;;;;;;;5015068;28;20046;-70
2021/08/25 02:45:56;;;;;;;101.95;56.50;;;;;;;;;;5014965;28;20050;-69
2021/08/25 02:48:42;;;;;;;384.48;55.22;;;;;;;;;;5013297;28;20058;-70
2021/08/25 02:51:27;;;;;;;165.32;43.72;;;;;;;;;;5027838;28;20050;-70
2021/08/25 02:54:12;;;;;;;74.47;40.90;;;;;;;;;;5014600;28;20046;-70
2021/08/25 02:56:57;;;;;;;76.13;40.70;;;;;;;;;;5014374;28;20404;-69
2021/08/25 02:59:43;;;;;;;548.35;100.80;;;;;;;;;;5032097;28;20503;-69
2021/08/25 03:02:28;;;;;;;550.15;104.13;;;;;;;;;;5033064;28;20085;-70
2021/08/25 03:05:13;;;;;;;433.52;88.43;;;;;;;;;;5032875;28;20076;-70
2021/08/25 03:07:58;;;;;;;467.65;91.50;;;;;;;;;;5030436;28;20049;-69
2021/08/25 03:10:43;;;;;;;560.60;101.07;;;;;;;;;;5032915;28;20053;-70
2021/08/25 03:13:28;;;;;;;526.30;101.25;;;;;;;;;;5033946;28;20439;-70
2021/08/25 03:16:13;;;;;;;462.45;93.00;;;;;;;;;;5032821;28;20503;-69
2021/08/25 03:18:58;;;;;;;484.92;88.82;;;;;;;;;;5018813;28;20133;-70
2021/08/25 03:21:44;;;;;;;439.00;84.03;;;;;;;;;;5012936;28;20057;-70
2021/08/25 03:24:29;;;;;;;428.15;87.32;;;;;;;;;;5012780;28;20062;-70
2021/08/25 03:27:14;;;;;;;469.00;89.65;;;;;;;;;;5012921;28;20516;-70
2021/08/25 03:29:59;;;;;;;356.20;75.88;;;;;;;;;;5030205;28;20405;-70
2021/08/25 03:32:44;;;;;;;423.30;83.63;;;;;;;;;;5033401;28;20053;-70
2021/08/25 03:35:29;;;;;;;417.08;84.65;;;;;;;;;;5032203;28;20053;-70
2021/08/25 03:38:15;;;;;;;399.40;77.60;;;;;;;;;;5030732;28;20500;-70
2021/08/25 03:41:00;;;;;;;430.52;92.03;;;;;;;;;;5013764;28;20046;-70
2021/08/25 03:43:45;;;;;;;342.40;78.65;;;;;;;;;;5012286;28;20427;-71
2021/08/25 03:46:30;;;;;;;414.45;84.40;;;;;;;;;;5023719;28;20049;-70
2021/08/25 03:49:15;;;;;;;399.38;80.07;;;;;;;;;;5031453;28;20053;-70
2021/08/25 03:52:00;;;;;;;536.00;91.72;;;;;;;;;;5031066;28;20386;-70
2021/08/25 03:54:46;;;;;;;357.52;74.40;;;;;;;;;;4998669;28;20058;-70
2021/08/25 03:57:31;;;;;;;377.48;76.47;;;;;;;;;;5012324;28;20132;-70
2021/08/25 04:00:16;;;;;;;408.27;76.00;;;;;;;;;;5022260;28;20061;-70
2021/08/25 04:03:01;;;;;;;466.30;82.68;;;;;;;;;;5010734;28;20053;-70
2021/08/25 04:05:46;;;;;;;370.20;72.68;;;;;;;;;;5011867;28;20050;-69
2021/08/25 04:08:32;;;;;;;298.33;68.10;;;;;;;;;;5013514;28;20042;-69
2021/08/25 04:11:20;;;;;;;219.35;57.70;;;;;;;;;;5011071;28;20496;-70
2021/08/25 04:14:05;;;;;;;293.50;60.65;;;;;;;;;;5011590;28;20140;-70
2021/08/25 04:16:50;;;;;;;182.50;52.97;;;;;;;;;;5013424;28;20053;-70
2021/08/25 04:19:35;;;;;;;278.42;61.13;;;;;;;;;;5012096;28;20423;-70
2021/08/25 04:22:20;;;;;;;199.43;53.13;;;;;;;;;;5011756;28;20526;-70
2021/08/25 04:25:06;;;;;;;127.10;37.97;;;;;;;;;;5012754;28;20058;-70
2021/08/25 04:27:51;;;;;;;283.70;59.13;;;;;;;;;;5011826;28;20514;-70
2021/08/25 04:30:36;;;;;;;213.68;50.45;;;;;;;;;;5001395;28;20496;-69
2021/08/25 04:33:22;;;;;;;308.70;62.22;;;;;;;;;;5031676;28;20057;-69
2021/08/25 04:36:07;;;;;;;204.20;51.50;;;;;;;;;;5032815;28;20114;-68
2021/08/25 04:38:52;;;;;;;265.75;55.25;;;;;;;;;;5031715;28;20060;-69
2021/08/25 04:41:38;;;;;;;152.35;40.25;;;;;;;;;;5031859;28;20049;-70
2021/08/25 04:44:23;;;;;;;183.35;47.20;;;;;;;;;;5017396;28;20089;-70
2021/08/25 04:47:08;;;;;;;195.25;49.63;;;;;;;;;;5031258;28;20075;-69
2021/08/25 04:49:53;;;;;;;234.50;55.85;;;;;;;;;;5032505;28;20057;-70
2021/08/25 04:52:39;;;;;;;170.95;48.90;;;;;;;;;;5029518;28;20049;-69
2021/08/25 04:55:24;;;;;;;164.77;45.97;;;;;;;;;;5016843;28;20058;-69
2021/08/25 04:58:09;;;;;;;182.77;50.42;;;;;;;;;;5031157;28;20049;-69
2021/08/25 05:00:54;;;;;;;89.00;31.40;;;;;;;;;;5017117;28;20063;-69
2021/08/25 05:03:40;;;;;;;145.68;39.80;;;;;;;;;;5030100;28;20558;-69
2021/08/25 05:06:25;;;;;;;263.95;47.90;;;;;;;;;;5020388;28;20061;-69
2021/08/25 05:09:10;;;;;;;277.17;53.50;;;;;;;;;;5021555;28;20057;-69
2021/08/25 05:11:56;;;;;;;335.65;55.72;;;;;;;;;;5022317;28;20053;-69
2021/08/25 05:14:41;;;;;;;212.25;48.13;;;;;;;;;;5019743;28;20053;-69
2021/08/25 05:17:26;;;;;;;146.98;41.42;;;;;;;;;;5011082;28;20061;-69
2021/08/25 05:20:12;;;;;;;138.05;40.30;;;;;;;;;;5012376;28;20054;-69
2021/08/25 05:22:57;;;;;;;110.72;37.28;;;;;;;;;;5018365;28;20053;-69
2021/08/25 05:25:43;;;;;;;170.52;40.78;;;;;;;;;;5031339;28;20474;-69
2021/08/25 05:28:28;;;;;;;139.23;36.05;;;;;;;;;;5030979;28;20050;-69
2021/08/25 05:31:13;;;;;;;144.27;35.30;;;;;;;;;;5031672;28;20543;-69
2021/08/25 05:33:59;;;;;;;46.78;25.75;;;;;;;;;;5023610;28;20384;-69
2021/08/25 05:36:44;;;;;;;129.27;38.47;;;;;;;;;;5030636;28;20057;-69
2021/08/25 05:39:29;;;;;;;124.57;37.47;;;;;;;;;;5030512;28;20061;-69
2021/08/25 05:42:14;;;;;;;112.18;32.55;;;;;;;;;;5030816;28;20050;-69
2021/08/25 05:44:59;;;;;;;112.03;35.92;;;;;;;;;;5011137;28;20393;-69
2021/08/25 05:47:44;;;;;;;133.27;37.30;;;;;;;;;;5011033;28;20054;-69
2021/08/25 05:50:30;;;;;;;155.48;38.88;;;;;;;;;;5012123;28;20057;-69
2021/08/25 05:53:15;;;;;;;116.60;37.67;;;;;;;;;;5011437;28;20389;-69
2021/08/25 05:56:00;;;;;;;89.88;31.60;;;;;;;;;;5031181;28;20057;-69
2021/08/25 05:58:45;;;;;;;94.90;35.22;;;;;;;;;;5035807;28;20053;-69
2021/08/25 06:01:31;;;;;;;89.30;30.88;;;;;;;;;;5022957;28;20050;-69
2021/08/25 06:04:16;;;;;;;103.70;32.55;;;;;;;;;;5014262;28;20058;-69
2021/08/25 06:07:01;;;;;;;65.75;29.05;;;;;;;;;;5014366;28;20555;-69
2021/08/25 06:09:46;;;;;;;80.70;35.00;;;;;;;;;;5014465;28;20058;-69
2021/08/25 06:12:31;;;;;;;47.97;26.30;;;;;;;;;;5012922;28;20053;-69
2021/08/25 06:15:17;;;;;;;36.85;26.23;;;;;;;;;;5000199;28;20050;-70
2021/08/25 06:18:02;;;;;;;34.60;26.70;;;;;;;;;;5000536;28;20065;-70
2021/08/25 06:20:47;;;;;;;31.85;25.50;;;;;;;;;;5014201;28;20066;-70
2021/08/25 06:23:32;;;;;;;30.20;24.95;;;;;;;;;;5014401;28;20062;-70
2021/08/25 06:26:17;;;;;;;30.05;26.27;;;;;;;;;;5015510;28;20161;-70
2021/08/25 06:29:02;;;;;;;26.60;23.30;;;;;;;;;;5014163;28;20057;-69
2021/08/25 06:31:48;;;;;;;32.85;26.23;;;;;;;;;;5005775;28;20053;-69
2021/08/25 06:34:32;;;;;;;31.30;26.77;;;;;;;;;;5022746;28;20049;-68
2021/08/25 06:37:17;;;;;;;28.95;25.85;;;;;;;;;;5028342;28;20053;-68
2021/08/25 06:40:03;;;;;;;24.55;22.02;;;;;;;;;;5025558;28;20136;-68
2021/08/25 06:42:48;;;;;;;23.88;21.35;;;;;;;;;;5023570;28;20059;-69
2021/08/25 06:45:33;;;;;;;25.38;22.88;;;;;;;;;;5013616;28;20489;-68
2021/08/25 06:48:19;;;;;;;24.52;22.00;;;;;;;;;;5014967;28;20125;-69
2021/08/25 06:51:04;;;;;;;19.75;17.75;;;;;;;;;;5013623;28;20504;-69
2021/08/25 06:53:49;;;;;;;21.38;19.17;;;;;;;;;;5012859;28;20050;-68
2021/08/25 06:56:34;;;;;;;22.23;20.02;;;;;;;;;;5014285;28;20062;-69
2021/08/25 06:59:20;;;;;;;16.10;14.50;;;;;;;;;;5015166;28;20054;-69
2021/08/25 07:02:05;;;;;;;15.80;14.10;;;;;;;;;;5015363;28;20389;-69
2021/08/25 07:04:50;;;;;;;16.00;14.45;;;;;;;;;;5013220;28;20500;-69
2021/08/25 07:07:35;;;;;;;14.95;13.55;;;;;;;;;;5012626;28;20125;-69
2021/08/25 07:10:20;;;;;;;15.90;14.50;;;;;;;;;;5014904;28;20058;-69
2021/08/25 07:13:05;;;;;;;13.35;12.23;;;;;;;;;;5032762;28;20050;-70
2021/08/25 07:15:51;;;;;;;11.68;10.50;;;;;;;;;;5034304;28;20041;-69
2021/08/25 07:18:36;;;;;;;11.10;9.88;;;;;;;;;;5034324;28;20049;-69
2021/08/25 07:21:21;;;;;;;11.65;9.57;;;;;;;;;;5026533;28;20125;-69
2021/08/25 07:24:07;;;;;;;12.63;8.73;;;;;;;;;;5013790;28;20508;-69
2021/08/25 07:26:52;;;;;;;11.32;8.82;;;;;;;;;;5013029;28;20046;-69
2021/08/25 07:29:37;;;;;;;11.25;8.50;;;;;;;;;;5012883;28;20058;-70
2021/08/25 07:32:22;;;;;;;9.10;8.23;;;;;;;;;;5024566;28;20053;-70
2021/08/25 07:35:08;;;;;;;9.15;7.97;;;;;;;;;;5032863;28;20049;-69
2021/08/25 07:37:54;;;;;;;8.32;6.45;;;;;;;;;;5032560;28;20049;-69
2021/08/25 07:40:39;;;;;;;7.38;5.65;;;;;;;;;;5032496;28;20133;-69
2021/08/25 07:43:24;;;;;;;5.90;4.82;;;;;;;;;;5032261;28;20057;-69
2021/08/25 07:46:09;;;;;;;7.25;3.78;;;;;;;;;;5027821;28;20049;-69
2021/08/25 07:48:54;;;;;;;5.18;4.43;;;;;;;;;;5032402;28;20053;-68
2021/08/25 07:51:39;;;;;;;8.10;4.15;;;;;;;;;;5029716;28;20053;-69
2021/08/25 07:54:24;;;;;;;6.78;5.38;;;;;;;;;;5031795;28;20405;-70
2021/08/25 07:57:09;;;;;;;6.35;5.75;;;;;;;;;;5032176;28;20514;-69
2021/08/25 07:59:54;;;;;;;8.82;7.10;;;;;;;;;;5032191;28;20057;-69
2021/08/25 08:02:40;;;;;;;10.88;6.43;;;;;;;;;;5032774;28;20392;-69
2021/08/25 08:05:25;;;;;;;7.30;6.05;;;;;;;;;;5018130;28;20061;-69
2021/08/25 08:08:10;;;;;;;9.57;6.78;;;;;;;;;;5031827;28;20129;-69
2021/08/25 08:10:55;;;;;;;8.13;6.05;;;;;;;;;;5030199;28;20653;-69
2021/08/25 08:13:40;;;;;;;8.13;3.92;;;;;;;;;;5026976;28;20049;-69
2021/08/25 08:16:26;;;;;;;6.18;3.85;;;;;;;;;;5027790;28;20064;-70
2021/08/25 08:19:22;;;;;;;6.10;4.10;;;;;;;;;;5012660;28;20058;-69
2021/08/25 08:22:07;;;;;;;5.00;3.03;;;;;;;;;;5012750;28;20054;-70
2021/08/25 08:24:53;;;;;;;5.00;2.70;;;;;;;;;;5013381;28;20050;-70
2021/08/25 08:27:38;;;;;;;3.20;1.90;;;;;;;;;;5011819;28;20551;-69
2021/08/25 08:30:23;;;;;;;2.92;1.90;;;;;;;;;;5013040;28;20125;-69
2021/08/25 08:33:08;;;;;;;5.43;2.50;;;;;;;;;;5022824;28;20058;-69
2021/08/25 08:35:53;;;;;;;27.13;3.75;;;;;;;;;;5031267;28;20057;-69
2021/08/25 08:38:38;;;;;;;4.57;2.75;;;;;;;;;;5032659;28;20045;-69
2021/08/25 08:41:24;;;;;;;3.53;2.30;;;;;;;;;;5025027;28;20049;-70
2021/08/25 08:44:12;;;;;;;5.53;2.47;;;;;;;;;;5022845;28;20504;-65
2021/08/25 08:46:57;;;;;;;3.60;2.47;;;;;;;;;;5023210;28;20049;-65
2021/08/25 08:49:42;;;;;;;4.15;2.28;;;;;;;;;;5022305;28;20049;-65
2021/08/25 08:52:28;;;;;;;3.80;1.83;;;;;;;;;;5018190;28;20053;-66
2021/08/25 08:55:13;;;;;;;3.08;1.77;;;;;;;;;;5026003;28;20049;-65
2021/08/25 08:57:58;;;;;;;3.30;1.75;;;;;;;;;;5032526;28;20053;-66
2021/08/25 09:00:44;;;;;;;3.75;1.90;;;;;;;;;;5032449;28;20057;-66
2021/08/25 09:03:29;;;;;;;2.65;1.60;;;;;;;;;;5030433;28;20053;-65
2021/08/25 09:06:14;;;;;;;5.50;1.85;;;;;;;;;;5032415;28;20124;-65
2021/08/25 09:09:00;;;;;;;4.38;1.83;;;;;;;;;;5032414;28;20049;-65
2021/08/25 09:11:48;;;;;;;4.20;1.67;;;;;;;;;;5032118;28;20117;-65
2021/08/25 09:14:33;;;;;;;5.07;1.85;;;;;;;;;;5029460;28;20124;-65
2021/08/25 09:17:28;;;;;;;5.30;1.38;;;;;;;;;;5031953;28;20053;-65
2021/08/25 09:20:14;;;;;;;5.10;1.58;;;;;;;;;;5031985;28;20057;-65
2021/08/25 09:23:07;;;;;;;2.83;1.50;;;;;;;;;;5031989;28;20049;-65
2021/08/25 09:25:52;;;;;;;2.17;1.23;;;;;;;;;;5011951;28;20132;-65
2021/08/25 09:28:38;;;;;;;7.70;2.10;;;;;;;;;;5012228;28;20058;-65
2021/08/25 09:31:23;;;;;;;4.38;1.05;;;;;;;;;;5014964;28;20045;-65
2021/08/25 09:34:08;;;;;;;2.28;0.80;;;;;;;;;;5017278;28;20053;-65
2021/08/25 09:37:07;;;;;;;3.15;1.40;;;;;;;;;;5017065;28;20050;-65
2021/08/25 09:39:53;;;;;;;2.90;0.73;;;;;;;;;;5018817;28;20128;-65
2021/08/25 09:42:42;;;;;;;4.97;1.50;;;;;;;;;;5018718;28;20050;-65
2021/08/25 09:45:27;;;;;;;2.15;0.70;;;;;;;;;;5018384;28;20054;-65
2021/08/25 09:48:12;;;;;;;3.38;0.82;;;;;;;;;;5018713;28;20451;-65
2021/08/25 09:50:58;;;;;;;2.38;0.82;;;;;;;;;;5018705;28;20054;-65
2021/08/25 09:53:44;;;;;;;1.70;0.75;;;;;;;;;;5018229;28;20054;-65
2021/08/25 09:56:32;;;;;;;3.33;0.73;;;;;;;;;;5031900;28;20132;-65
2021/08/25 09:59:17;;;;;;;0.98;0.70;;;;;;;;;;5038324;28;20061;-64
2021/08/25 10:02:02;;;;;;;1.33;0.52;;;;;;;;;;5018477;28;20045;-65
2021/08/25 10:04:47;;;;;;;0.90;0.50;;;;;;;;;;5017296;28;20062;-64
2021/08/25 10:07:34;;;;;;;1.05;0.40;;;;;;;;;;5018699;28;20389;-64
2021/08/25 10:10:19;;;;;;;2.40;0.52;;;;;;;;;;5018380;28;20093;-64
2021/08/25 10:13:05;;;;;;;1.40;0.40;;;;;;;;;;5018599;28;20085;-64
2021/08/25 10:15:50;;;;;;;0.57;0.40;;;;;;;;;;5017766;28;20049;-64
2021/08/25 10:18:40;;;;;;;1.15;0.70;;;;;;;;;;5018288;28;20054;-65
2021/08/25 10:21:36;;;;;;;1.00;0.43;;;;;;;;;;5018365;28;20496;-65
2021/08/25 10:24:21;;;;;;;0.65;0.30;;;;;;;;;;5018166;28;20057;-64
2021/08/25 10:27:07;;;;;;;0.85;0.40;;;;;;;;;;5017331;28;20054;-64
2021/08/25 10:30:02;;;;;;;2.17;0.40;;;;;;;;;;5017855;28;20496;-65
2021/08/25 10:32:53;;;;;;;0.70;0.30;;;;;;;;;;5018218;28;20086;-65
2021/08/25 10:35:41;;;;;;;1.95;0.50;;;;;;;;;;5018202;28;20054;-65
2021/08/25 10:38:30;;;;;;;0.38;0.20;;;;;;;;;;5017175;28;20050;-65
2021/08/25 10:41:21;;;;;;;0.15;0.10;;;;;;;;;;5018177;28;20500;-65
2021/08/25 10:44:07;;;;;;;0.20;0.20;;;;;;;;;;5013885;28;20085;-65
2021/08/25 10:46:52;;;;;;;1.33;0.50;;;;;;;;;;5014267;28;20054;-64
2021/08/25 10:49:46;;;;;;;0.30;0.20;;;;;;;;;;5033261;28;20128;-65
2021/08/25 10:52:32;;;;;;;3.08;0.20;;;;;;;;;;5034688;28;20121;-65
2021/08/25 10:55:19;;;;;;;1.42;0.45;;;;;;;;;;5034339;28;20053;-64
2021/08/25 10:58:04;;;;;;;0.40;0.20;;;;;;;;;;5033146;28;20057;-65
2021/08/25 11:00:49;;;;;;;3.30;0.40;;;;;;;;;;5029608;28;20491;-65
2021/08/25 11:03:35;;;;;;;1.95;0.30;;;;;;;;;;5014505;28;20054;-65
2021/08/25 11:06:30;;;;;;;0.95;0.40;;;;;;;;;;5014685;28;20089;-64
2021/08/25 11:09:18;;;;;;;0.82;0.20;;;;;;;;;;5013746;28;20077;-65
2021/08/25 11:12:13;;;;;;;0.93;0.40;;;;;;;;;;5014677;28;20054;-64
2021/08/25 11:14:59;;;;;;;0.20;0.20;;;;;;;;;;5014103;28;20054;-64
2021/08/25 11:17:44;;;;;;;0.40;0.20;;;;;;;;;;5014619;28;20058;-64
2021/08/25 11:20:29;;;;;;;1.15;0.20;;;;;;;;;;5014449;28;20054;-65
2021/08/25 11:23:15;;;;;;;0.57;0.15;;;;;;;;;;5029232;28;20050;-65
2021/08/25 11:26:00;;;;;;;1.23;0.10;;;;;;;;;;5034221;28;20053;-65
2021/08/25 11:28:45;;;;;;;0.50;0.10;;;;;;;;;;5047071;28;20046;-64
2021/08/25 11:31:30;;;;;;;1.15;0.10;;;;;;;;;;5033864;28;20054;-65
2021/08/25 11:34:16;;;;;;;0.50;0.20;;;;;;;;;;5033997;28;20116;-64
2021/08/25 11:37:03;;;;;;;0.68;0.20;;;;;;;;;;5033946;28;20124;-64
2021/08/25 11:40:03;;;;;;;0.47;0.20;;;;;;;;;;5033689;28;20057;-65
2021/08/25 11:42:48;;;;;;;0.25;0.25;;;;;;;;;;5025788;28;20050;-64
2021/08/25 11:45:34;;;;;;;1.23;0.20;;;;;;;;;;5013016;28;20088;-64
2021/08/25 11:48:19;;;;;;;0.68;0.20;;;;;;;;;;5013790;28;20125;-64
2021/08/25 11:51:04;;;;;;;0.40;0.20;;;;;;;;;;5015742;28;20054;-65
2021/08/25 11:53:49;;;;;;;1.77;0.25;;;;;;;;;;5011678;28;20125;-64
2021/08/25 11:56:35;;;;;;;0.50;0.40;;;;;;;;;;5012594;28;20116;-64
2021/08/25 11:59:21;;;;;;;1.98;0.22;;;;;;;;;;5013786;28;20124;-64
2021/08/25 12:02:09;;;;;;;1.35;0.50;;;;;;;;;;5026734;28;20503;-65
2021/08/25 12:04:54;;;;;;;1.00;0.20;;;;;;;;;;5032972;28;20503;-65
2021/08/25 12:07:39;;;;;;;0.45;0.38;;;;;;;;;;5033406;28;20053;-65
2021/08/25 12:10:25;;;;;;;1.30;0.60;;;;;;;;;;5032319;28;20049;-65
2021/08/25 12:13:10;;;;;;;2.08;0.75;;;;;;;;;;5032974;28;20106;-65
2021/08/25 12:15:55;;;;;;;0.95;0.35;;;;;;;;;;5033256;28;20041;-65
2021/08/25 12:18:47;;;;;;;1.35;0.40;;;;;;;;;;5033183;28;20081;-64
2021/08/25 12:21:33;;;;;;;1.05;0.47;;;;;;;;;;5030638;28;20050;-64
2021/08/25 12:24:19;;;;;;;2.65;0.47;;;;;;;;;;5032743;28;20072;-65
2021/08/25 12:27:04;;;;;;;0.50;0.30;;;;;;;;;;5032938;28;20050;-65
2021/08/25 12:29:49;;;;;;;0.82;0.30;;;;;;;;;;5033196;28;20124;-64
2021/08/25 12:32:44;;;;;;;1.25;0.60;;;;;;;;;;5022072;28;20052;-65
2021/08/25 12:35:29;;;;;;;1.17;0.50;;;;;;;;;;5012801;28;20077;-65
2021/08/25 12:38:14;;;;;;;1.30;0.57;;;;;;;;;;5012945;28;20053;-65
2021/08/25 12:40:59;;;;;;;1.17;0.30;;;;;;;;;;5012724;28;20053;-69
2021/08/25 12:43:45;;;;;;;2.78;0.60;;;;;;;;;;5019692;28;20050;-69
2021/08/25 12:46:30;;;;;;;0.65;0.20;;;;;;;;;;5022403;28;20464;-69
2021/08/25 12:49:15;;;;;;;0.55;0.20;;;;;;;;;;5019997;28;20061;-69
2021/08/25 12:52:01;;;;;;;0.50;0.15;;;;;;;;;;5015015;28;20049;-69
2021/08/25 12:54:46;;;;;;;0.57;0.20;;;;;;;;;;5010074;28;20065;-69
2021/08/25 12:57:31;;;;;;;0.70;0.20;;;;;;;;;;5010980;28;20058;-70
2021/08/25 13:00:16;;;;;;;1.33;0.50;;;;;;;;;;5012273;28;20094;-69
2021/08/25 13:03:01;;;;;;;1.77;0.20;;;;;;;;;;5014521;28;20053;-69
2021/08/25 13:05:47;;;;;;;0.98;0.30;;;;;;;;;;5029825;28;20045;-69
2021/08/25 13:08:32;;;;;;;5.13;0.38;;;;;;;;;;5032154;28;20054;-70
2021/08/25 13:11:17;;;;;;;1.17;0.30;;;;;;;;;;5032002;28;20543;-68
2021/08/25 13:14:02;;;;;;;2.47;0.28;;;;;;;;;;5020372;28;20520;-70
2021/08/25 13:16:48;;;;;;;1.75;0.20;;;;;;;;;;5012333;28;20497;-70
2021/08/25 13:19:34;;;;;;;0.90;0.30;;;;;;;;;;5012285;28;20050;-69
2021/08/25 13:22:19;;;;;;;0.22;0.20;;;;;;;;;;5012350;28;20133;-68
2021/08/25 13:25:04;;;;;;;1.17;0.35;;;;;;;;;;5012552;28;20409;-69
2021/08/25 13:27:50;;;;;;;1.55;0.30;;;;;;;;;;5012244;28;20124;-69
2021/08/25 13:30:35;;;;;;;1.07;0.30;;;;;;;;;;4665497;28;10001050;-68
2021/08/25 13:33:20;;;;;;;1.13;0.20;;;;;;;;;;4664695;28;10000858;-70
2021/08/25 13:36:05;;;;;;;1.95;0.22;;;;;;;;;;5030256;28;20393;-69
2021/08/25 13:38:51;;;;;;;1.25;0.40;;;;;;;;;;5030958;28;20057;-68
2021/08/25 13:41:36;;;;;;;1.48;0.30;;;;;;;;;;5031116;28;20057;-68
2021/08/25 13:44:22;;;;;;;0.40;0.30;;;;;;;;;;5029679;28;20057;-68
2021/08/25 13:47:08;;;;;;;1.13;0.40;;;;;;;;;;5029331;28;20057;-69
2021/08/25 13:49:53;;;;;;;1.27;0.55;;;;;;;;;;5031210;28;20080;-70
2021/08/25 13:52:39;;;;;;;1.17;0.40;;;;;;;;;;5031035;28;20396;-69
2021/08/25 13:55:24;;;;;;;1.52;0.40;;;;;;;;;;5028307;28;20132;-68
2021/08/25 13:58:10;;;;;;;1.58;0.60;;;;;;;;;;5030038;28;20053;-69
2021/08/25 14:00:55;;;;;;;1.73;1.00;;;;;;;;;;5031121;28;20057;-69
2021/08/25 14:03:40;;;;;;;1.38;0.60;;;;;;;;;;5029457;28;20523;-69
2021/08/25 14:06:26;;;;;;;0.73;0.60;;;;;;;;;;5030085;28;20120;-68
2021/08/25 14:09:11;;;;;;;0.60;0.50;;;;;;;;;;5031208;28;20049;-69
2021/08/25 14:11:56;;;;;;;0.85;0.70;;;;;;;;;;5030692;28;20535;-69
2021/08/25 14:14:42;;;;;;;3.08;0.75;;;;;;;;;;5024478;28;20046;-69
2021/08/25 14:17:27;;;;;;;2.30;0.80;;;;;;;;;;5018036;28;20053;-68
2021/08/25 14:20:14;;;;;;;1.60;0.93;;;;;;;;;;5025027;28;20049;-69
2021/08/25 14:22:59;;;;;;;2.53;1.05;;;;;;;;;;5024614;28;20057;-70
2021/08/25 14:25:44;;;;;;;2.05;0.88;;;;;;;;;;5013874;28;20464;-70
2021/08/25 14:28:29;;;;;;;1.40;0.73;;;;;;;;;;5013757;28;20054;-69
2021/08/25 14:31:15;;;;;;;2.85;0.80;;;;;;;;;;5014905;28;20475;-68
2021/08/25 14:34:00;;;;;;;1.30;0.65;;;;;;;;;;5013172;28;20054;-68
2021/08/25 14:36:45;;;;;;;2.95;0.70;;;;;;;;;;5012620;28;20042;-69
2021/08/25 14:39:31;;;;;;;2.95;0.93;;;;;;;;;;5013637;28;20050;-68
2021/08/25 14:42:16;;;;;;;1.77;0.70;;;;;;;;;;5013855;28;20062;-69
2021/08/25 14:45:01;;;;;;;1.85;0.88;;;;;;;;;;5014228;28;20393;-68
2021/08/25 14:47:46;;;;;;;1.67;1.15;;;;;;;;;;5023851;28;20496;-68
2021/08/25 14:50:31;;;;;;;1.70;1.38;;;;;;;;;;5034460;28;20132;-68
2021/08/25 14:53:17;;;;;;;7.68;1.63;;;;;;;;;;5033132;28;20057;-68
2021/08/25 14:56:02;;;;;;;3.67;1.52;;;;;;;;;;5034596;28;20121;-68
2021/08/25 14:58:47;;;;;;;2.25;1.67;;;;;;;;;;5030649;28;20723;-68
2021/08/25 15:01:32;;;;;;;6.32;1.95;;;;;;;;;;5021573;28;20054;-70
2021/08/25 15:04:18;;;;;;;3.33;2.78;;;;;;;;;;5014210;28;20056;-69
2021/08/25 15:07:03;;;;;;;2.42;2.13;;;;;;;;;;5013930;28;20053;-70
2021/08/25 15:09:49;;;;;;;3.90;1.90;;;;;;;;;;5013657;28;20536;-69
2021/08/25 15:12:34;;;;;;;5.45;2.03;;;;;;;;;;5013529;28;20058;-68
2021/08/25 15:15:19;;;;;;;2.70;1.90;;;;;;;;;;5014205;28;20520;-69
2021/08/25 15:18:04;;;;;;;2.72;1.90;;;;;;;;;;5013869;28;20046;-69
2021/08/25 15:20:50;;;;;;;2.42;2.03;;;;;;;;;;5013302;28;20389;-68
2021/08/25 15:23:35;;;;;;;3.20;2.40;;;;;;;;;;5012026;28;20133;-69
2021/08/25 15:26:21;;;;;;;2.53;2.25;;;;;;;;;;5012795;28;20075;-69
2021/08/25 15:29:06;;;;;;;5.60;2.33;;;;;;;;;;5021844;28;20054;-69
2021/08/25 15:31:51;;;;;;;2.80;2.50;;;;;;;;;;5033157;28;20061;-69
2021/08/25 15:34:37;;;;;;;3.95;2.67;;;;;;;;;;5026524;28;20057;-69
2021/08/25 15:37:23;;;;;;;4.82;2.78;;;;;;;;;;5024649;28;20049;-69
2021/08/25 15:40:09;;;;;;;4.65;2.38;;;;;;;;;;5022185;28;20056;-69
2021/08/25 15:42:55;;;;;;;4.68;2.55;;;;;;;;;;5009196;28;20046;-70
2021/08/25 15:45:40;;;;;;;3.40;2.25;;;;;;;;;;5024552;28;20053;-69
2021/08/25 15:48:25;;;;;;;4.93;2.50;;;;;;;;;;5022959;28;20045;-69
2021/08/25 15:51:10;;;;;;;2.83;2.10;;;;;;;;;;5023525;28;20053;-69
2021/08/25 15:53:56;;;;;;;2.38;2.13;;;;;;;;;;5022436;28;20046;-68
2021/08/25 15:56:41;;;;;;;3.50;2.42;;;;;;;;;;5020659;28;20045;-69
2021/08/25 15:59:26;;;;;;;3.92;2.95;;;;;;;;;;5043764;28;20160;-69
2021/08/25 16:02:11;;;;;;;3.45;2.25;;;;;;;;;;5031526;28;20061;-70
2021/08/25 16:04:57;;;;;;;5.10;2.55;;;;;;;;;;5033312;28;20057;-69
2021/08/25 16:07:42;;;;;;;4.95;2.20;;;;;;;;;;5032238;28;20057;-68
2021/08/25 16:10:32;;;;;;;5.28;2.13;;;;;;;;;;5022198;28;20089;-69
2021/08/25 16:13:17;;;;;;;2.53;1.67;;;;;;;;;;5012984;28;20054;-69
2021/08/25 16:16:02;;;;;;;2.00;1.80;;;;;;;;;;5013417;28;20405;-68